Time;durP1;ratioP1;P1;durP2;ratioP2;P2;SDS_P1;SDS_P2;PMS_P1;PMS_P2;Temp;Humidity;BMP_temperature;BMP_pressure;BME280_temperature;BME280_humidity;BME280_pressure;Samples;Min_cycle;Max_cycle;Signal;HPM_P1;HPM_P2
2023/09/10 00:01:16;;;;;;;13.07;10.10;;;23.20;99.90;;;;;;4936466;28;20183;-75
2023/09/10 00:03:42;;;;;;;11.83;9.97;;;23.20;99.90;;;;;;4920015;29;20192;-75
2023/09/10 00:06:08;;;;;;;12.03;10.60;;;23.20;99.90;;;;;;4947695;29;20271;-75
2023/09/10 00:08:35;;;;;;;13.67;9.90;;;23.20;99.90;;;;;;4954931;29;20176;-75
2023/09/10 00:11:01;;;;;;;12.67;10.03;;;23.20;99.90;;;;;;4954479;29;20564;-75
2023/09/10 00:13:28;;;;;;;15.30;11.37;;;23.10;99.90;;;;;;4948003;28;20641;-75
2023/09/10 00:15:56;;;;;;;12.07;10.87;;;23.10;99.90;;;;;;4944152;29;20588;-75
2023/09/10 00:18:22;;;;;;;15.40;10.17;;;23.10;99.90;;;;;;4942314;29;20577;-74
2023/09/10 00:20:51;;;;;;;13.03;10.60;;;23.10;99.90;;;;;;4930185;29;20593;-75
2023/09/10 00:23:17;;;;;;;12.40;11.10;;;23.10;99.90;;;;;;4912735;29;20636;-75
2023/09/10 00:25:43;;;;;;;13.80;10.10;;;23.10;99.90;;;;;;4942648;29;20593;-75
2023/09/10 00:28:08;;;;;;;13.57;11.10;;;23.10;99.90;;;;;;4928754;29;20177;-75
2023/09/10 00:30:35;;;;;;;12.83;10.77;;;23.10;99.90;;;;;;4947593;29;20591;-75
2023/09/10 00:33:02;;;;;;;11.93;10.60;;;23.10;99.90;;;;;;4932706;29;20228;-75
2023/09/10 00:35:28;;;;;;;11.67;10.47;;;23.10;99.90;;;;;;4933073;29;20689;-75
2023/09/10 00:37:54;;;;;;;11.57;9.67;;;23.10;99.90;;;;;;4920178;29;20597;-74
2023/09/10 00:40:19;;;;;;;12.57;10.20;;;23.10;99.90;;;;;;4936752;29;21180;-75
2023/09/10 00:42:45;;;;;;;10.23;9.07;;;23.10;99.90;;;;;;4911876;29;20189;-75
2023/09/10 00:45:12;;;;;;;12.03;9.97;;;23.00;99.90;;;;;;4932952;29;20299;-75
2023/09/10 00:47:45;;;;;;;14.17;10.30;;;23.00;99.90;;;;;;4929657;29;20214;-76
2023/09/10 00:50:13;;;;;;;10.40;9.30;;;23.00;99.90;;;;;;4897644;29;20590;-76
2023/09/10 00:52:45;;;;;;;12.33;10.17;;;23.00;99.90;;;;;;4897898;29;20622;-75
2023/09/10 00:55:12;;;;;;;11.33;10.20;;;23.00;99.90;;;;;;4913762;29;20590;-76
2023/09/10 00:57:38;;;;;;;10.67;9.57;;;23.00;99.90;;;;;;4909870;29;20590;-75
2023/09/10 01:00:08;;;;;;;14.30;9.80;;;23.00;99.90;;;;;;4914294;29;20589;-76
2023/09/10 01:02:34;;;;;;;15.30;10.43;;;23.00;99.90;;;;;;4925229;29;20674;-75
2023/09/10 01:05:00;;;;;;;18.80;9.67;;;22.90;99.90;;;;;;4920975;29;20742;-76
2023/09/10 01:07:26;;;;;;;11.77;10.60;;;22.90;99.90;;;;;;4911889;29;21024;-76
2023/09/10 01:09:52;;;;;;;12.03;9.30;;;22.90;99.90;;;;;;4902260;29;20609;-76
2023/09/10 01:12:35;;;;;;;15.53;9.87;;;22.90;99.90;;;;;;4917751;29;21049;-76
2023/09/10 01:15:30;;;;;;;10.23;9.20;;;22.90;99.90;;;;;;4921137;29;20209;-76
2023/09/10 01:18:17;;;;;;;11.00;9.90;;;22.80;99.90;;;;;;4881811;29;20602;-76
2023/09/10 01:21:18;;;;;;;10.67;8.43;;;22.80;99.90;;;;;;4897471;29;21187;-76
2023/09/10 01:23:46;;;;;;;13.93;8.53;;;22.80;99.90;;;;;;4933372;29;20612;-76
2023/09/10 01:26:12;;;;;;;12.93;9.37;;;22.90;99.90;;;;;;4916294;29;20581;-76
2023/09/10 01:28:38;;;;;;;17.80;9.27;;;22.80;99.90;;;;;;4916392;29;20580;-76
2023/09/10 01:31:03;;;;;;;13.10;9.80;;;22.80;99.90;;;;;;4925352;29;20187;-76
2023/09/10 01:33:35;;;;;;;13.33;9.87;;;22.80;99.90;;;;;;4916152;29;20304;-76
2023/09/10 01:36:31;;;;;;;14.30;9.13;;;22.70;99.90;;;;;;4916256;29;20192;-75
2023/09/10 01:39:11;;;;;;;18.30;9.87;;;22.70;99.90;;;;;;4912935;29;20582;-76
2023/09/10 01:41:39;;;;;;;13.57;10.53;;;22.70;99.90;;;;;;4913033;29;20626;-76
2023/09/10 01:44:06;;;;;;;10.43;9.57;;;22.70;99.90;;;;;;4923809;29;21202;-76
2023/09/10 01:46:35;;;;;;;10.20;8.97;;;22.70;99.90;;;;;;4916138;29;20601;-76
2023/09/10 01:49:02;;;;;;;9.80;8.90;;;22.70;99.90;;;;;;4915921;29;20619;-76
2023/09/10 01:51:28;;;;;;;20.30;9.00;;;22.70;99.90;;;;;;4917791;29;20618;-76
2023/09/10 01:53:54;;;;;;;12.13;8.40;;;22.60;99.90;;;;;;4912785;29;20653;-76
2023/09/10 01:56:20;;;;;;;8.87;8.07;;;22.60;99.90;;;;;;4897231;29;20238;-75
2023/09/10 01:58:46;;;;;;;11.17;8.70;;;22.60;99.90;;;;;;4897164;29;20174;-75
2023/09/10 02:01:12;;;;;;;12.10;8.40;;;22.60;99.90;;;;;;4913872;29;20946;-75
2023/09/10 02:03:37;;;;;;;11.20;9.20;;;22.60;99.90;;;;;;4897100;29;20950;-75
2023/09/10 02:06:04;;;;;;;12.93;9.37;;;22.50;99.90;;;;;;4897152;29;20190;-75
2023/09/10 02:08:30;;;;;;;13.73;10.03;;;22.50;99.90;;;;;;4895242;29;21247;-75
2023/09/10 02:10:56;;;;;;;12.27;8.70;;;22.50;99.90;;;;;;4931521;29;20593;-75
2023/09/10 02:13:22;;;;;;;14.70;9.27;;;22.50;99.90;;;;;;4932826;29;20648;-75
2023/09/10 02:15:48;;;;;;;11.97;10.13;;;22.50;99.90;;;;;;4932865;29;20180;-75
2023/09/10 02:18:15;;;;;;;10.10;8.20;;;22.40;99.90;;;;;;4931404;29;20616;-75
2023/09/10 02:20:41;;;;;;;11.17;8.67;;;22.40;99.90;;;;;;4932722;29;20601;-75
2023/09/10 02:23:07;;;;;;;14.60;8.83;;;22.40;99.90;;;;;;4949781;28;20223;-75
2023/09/10 02:25:33;;;;;;;14.03;8.67;;;22.40;99.90;;;;;;4928407;29;20189;-75
2023/09/10 02:28:00;;;;;;;17.40;9.40;;;22.40;99.90;;;;;;4941602;29;20587;-75
2023/09/10 02:30:26;;;;;;;9.97;8.97;;;22.40;99.90;;;;;;4934665;29;20185;-75
2023/09/10 02:32:52;;;;;;;13.13;8.83;;;22.30;99.90;;;;;;4936970;29;20624;-75
2023/09/10 02:35:17;;;;;;;17.83;8.87;;;22.30;99.90;;;;;;4938238;29;20577;-75
2023/09/10 02:37:43;;;;;;;13.00;8.77;;;22.30;99.90;;;;;;4955380;29;20181;-75
2023/09/10 02:40:09;;;;;;;10.13;9.00;;;22.30;99.90;;;;;;4954981;29;20190;-75
2023/09/10 02:42:35;;;;;;;12.13;9.73;;;22.30;99.90;;;;;;4934415;29;20577;-75
2023/09/10 02:45:02;;;;;;;9.23;8.27;;;22.20;99.90;;;;;;4926607;29;20597;-75
2023/09/10 02:47:28;;;;;;;10.27;8.83;;;22.20;99.90;;;;;;4918745;29;20193;-75
2023/09/10 02:49:55;;;;;;;12.70;9.07;;;22.20;99.90;;;;;;4942120;29;20588;-75
2023/09/10 02:52:24;;;;;;;9.40;8.40;;;22.20;99.90;;;;;;4928093;29;21023;-75
2023/09/10 02:54:51;;;;;;;11.33;8.60;;;22.20;99.90;;;;;;4902745;29;21227;-75
2023/09/10 02:57:17;;;;;;;10.87;9.00;;;22.10;99.90;;;;;;4934493;29;20595;-75
2023/09/10 02:59:43;;;;;;;12.10;9.10;;;22.10;99.90;;;;;;4941727;29;20591;-75
2023/09/10 03:02:08;;;;;;;11.43;8.70;;;22.10;99.90;;;;;;4942577;28;21037;-75
2023/09/10 03:04:34;;;;;;;10.63;9.57;;;22.10;99.90;;;;;;4934283;29;20605;-75
2023/09/10 03:07:02;;;;;;;9.43;7.73;;;22.10;99.90;;;;;;4934251;28;20181;-75
2023/09/10 03:09:29;;;;;;;10.20;9.10;;;22.10;99.90;;;;;;4939519;29;20235;-75
2023/09/10 03:12:17;;;;;;;9.60;8.60;;;22.00;99.90;;;;;;4954383;28;20624;-75
2023/09/10 03:14:43;;;;;;;10.27;8.50;;;22.00;99.90;;;;;;4937252;29;20702;-75
2023/09/10 03:17:10;;;;;;;11.00;8.93;;;22.00;99.90;;;;;;4953215;29;20580;-75
2023/09/10 03:19:37;;;;;;;11.63;7.67;;;22.00;99.90;;;;;;4952820;29;20644;-75
2023/09/10 03:22:03;;;;;;;14.50;9.53;;;22.00;99.90;;;;;;4952918;29;21152;-75
2023/09/10 03:24:33;;;;;;;12.87;9.03;;;21.90;99.90;;;;;;4952313;29;20600;-77
2023/09/10 03:26:59;;;;;;;11.83;8.70;;;21.90;99.90;;;;;;4952788;29;20621;-77
2023/09/10 03:29:25;;;;;;;9.90;8.87;;;21.90;99.90;;;;;;4960419;29;20589;-77
2023/09/10 03:31:51;;;;;;;10.60;9.37;;;21.90;99.90;;;;;;4968069;28;20210;-77
2023/09/10 03:34:18;;;;;;;13.63;9.87;;;21.90;99.90;;;;;;4961166;29;20641;-77
2023/09/10 03:36:44;;;;;;;10.20;8.37;;;21.90;99.90;;;;;;4967788;29;20592;-77
2023/09/10 03:39:10;;;;;;;11.30;8.20;;;21.80;99.90;;;;;;4950959;28;20592;-77
2023/09/10 03:41:36;;;;;;;9.60;8.60;;;21.80;99.90;;;;;;4963398;28;20216;-78
2023/09/10 03:44:02;;;;;;;11.23;8.60;;;21.80;99.90;;;;;;4963574;29;20592;-78
2023/09/10 03:46:28;;;;;;;9.43;8.53;;;21.80;99.90;;;;;;4952843;29;20268;-77
2023/09/10 03:48:53;;;;;;;10.17;9.00;;;21.80;99.90;;;;;;4955291;29;20650;-77
2023/09/10 03:51:19;;;;;;;12.43;8.53;;;21.80;99.90;;;;;;4930038;29;20165;-77
2023/09/10 03:53:45;;;;;;;11.00;9.10;;;21.80;99.90;;;;;;4931245;29;20590;-78
2023/09/10 03:56:11;;;;;;;9.47;8.60;;;21.80;99.90;;;;;;4960494;29;20752;-77
2023/09/10 03:58:36;;;;;;;15.03;9.90;;;21.80;99.90;;;;;;4926649;29;20177;-77
2023/09/10 04:01:02;;;;;;;11.93;9.80;;;21.70;99.90;;;;;;4959558;29;20189;-78
2023/09/10 04:03:28;;;;;;;10.37;9.43;;;21.70;99.90;;;;;;4951997;28;20200;-77
2023/09/10 04:05:54;;;;;;;11.90;9.10;;;21.70;99.90;;;;;;4942836;29;20185;-77
2023/09/10 04:08:19;;;;;;;12.13;8.50;;;21.70;99.90;;;;;;4958327;28;20177;-77
2023/09/10 04:10:45;;;;;;;10.13;8.87;;;21.60;99.90;;;;;;4955494;28;20596;-77
2023/09/10 04:13:11;;;;;;;11.57;9.03;;;21.60;99.90;;;;;;4950630;29;20235;-77
2023/09/10 04:15:36;;;;;;;9.47;8.13;;;21.60;99.90;;;;;;4929974;29;20176;-76
2023/09/10 04:18:06;;;;;;;13.53;9.63;;;21.60;99.90;;;;;;4962018;29;20184;-76
2023/09/10 04:20:32;;;;;;;8.83;7.77;;;21.60;99.90;;;;;;4952392;29;20180;-76
2023/09/10 04:22:57;;;;;;;11.50;9.73;;;21.60;99.90;;;;;;4907891;29;21004;-77
2023/09/10 04:25:24;;;;;;;12.87;9.20;;;21.60;99.90;;;;;;4935729;29;20585;-76
2023/09/10 04:27:49;;;;;;;10.97;8.77;;;21.60;99.90;;;;;;4913652;29;20796;-77
2023/09/10 04:30:15;;;;;;;13.53;8.67;;;21.60;99.90;;;;;;4927224;29;20209;-76
2023/09/10 04:32:41;;;;;;;10.30;8.17;;;21.60;99.90;;;;;;4908734;29;20248;-77
2023/09/10 04:35:08;;;;;;;13.43;9.63;;;21.60;99.90;;;;;;4935893;29;20287;-77
2023/09/10 04:37:34;;;;;;;10.30;7.97;;;21.50;99.90;;;;;;4888589;29;20582;-76
2023/09/10 04:40:06;;;;;;;10.60;8.37;;;21.50;99.90;;;;;;4903389;29;20676;-76
2023/09/10 04:42:33;;;;;;;10.00;8.60;;;21.50;99.90;;;;;;4917728;29;20259;-77
2023/09/10 04:44:59;;;;;;;11.43;10.00;;;21.50;99.90;;;;;;4934352;29;20608;-77
2023/09/10 04:47:25;;;;;;;9.60;7.67;;;21.50;99.90;;;;;;4938133;29;20593;-77
2023/09/10 04:49:51;;;;;;;12.27;8.47;;;21.50;99.90;;;;;;4936620;29;20592;-77
2023/09/10 04:52:16;;;;;;;11.57;8.77;;;21.50;99.90;;;;;;4946165;29;20629;-75
2023/09/10 04:54:42;;;;;;;12.70;8.60;;;21.50;99.90;;;;;;4906665;29;20209;-76
2023/09/10 04:57:10;;;;;;;8.80;8.00;;;21.50;99.90;;;;;;4925806;29;20941;-76
2023/09/10 04:59:35;;;;;;;12.17;8.07;;;21.50;99.90;;;;;;4913923;29;20214;-76
2023/09/10 05:02:02;;;;;;;10.90;7.70;;;21.40;99.90;;;;;;4897795;29;20625;-76
2023/09/10 05:04:28;;;;;;;13.43;9.67;;;21.40;99.90;;;;;;4903103;29;20177;-76
2023/09/10 05:06:54;;;;;;;10.70;8.93;;;21.40;99.90;;;;;;4918472;29;20966;-76
2023/09/10 05:09:19;;;;;;;10.03;8.33;;;21.40;99.90;;;;;;4919315;29;20241;-76
2023/09/10 05:11:45;;;;;;;11.20;8.37;;;21.40;99.90;;;;;;4932441;29;20193;-77
2023/09/10 05:14:11;;;;;;;18.80;9.87;;;21.40;99.90;;;;;;4924682;29;20212;-76
2023/09/10 05:16:37;;;;;;;10.87;8.80;;;21.40;99.90;;;;;;4933861;29;20948;-76
2023/09/10 05:19:03;;;;;;;15.13;9.27;;;21.40;99.90;;;;;;4933336;29;20617;-76
2023/09/10 05:21:28;;;;;;;9.87;7.17;;;21.40;99.90;;;;;;4925234;29;20292;-76
2023/09/10 05:23:54;;;;;;;9.17;7.93;;;21.40;99.90;;;;;;4926106;29;20309;-76
2023/09/10 05:26:21;;;;;;;9.93;7.70;;;21.40;99.90;;;;;;4924706;29;20645;-76
2023/09/10 05:28:47;;;;;;;9.40;7.77;;;21.40;99.90;;;;;;4924668;29;20185;-76
2023/09/10 05:31:13;;;;;;;8.83;7.80;;;21.40;99.90;;;;;;4931724;29;20640;-76
2023/09/10 05:33:39;;;;;;;12.40;8.70;;;21.40;99.90;;;;;;4900439;29;20211;-76
2023/09/10 05:36:05;;;;;;;10.23;9.23;;;21.40;99.90;;;;;;4931782;29;20589;-75
2023/09/10 05:38:32;;;;;;;14.77;8.07;;;21.40;99.90;;;;;;4931906;29;20573;-76
2023/09/10 05:41:03;;;;;;;14.23;8.40;;;21.40;99.90;;;;;;4915666;29;21362;-77
2023/09/10 05:43:32;;;;;;;9.97;7.80;;;21.40;99.90;;;;;;4915976;29;20624;-76
2023/09/10 05:45:58;;;;;;;8.83;7.90;;;21.40;99.90;;;;;;4907398;29;20641;-76
2023/09/10 05:48:25;;;;;;;8.77;7.60;;;21.50;99.90;;;;;;4920480;29;20598;-76
2023/09/10 05:50:55;;;;;;;12.77;7.50;;;21.50;99.90;;;;;;4920655;29;20586;-76
2023/09/10 05:53:21;;;;;;;10.17;7.20;;;21.50;99.90;;;;;;4929209;29;20258;-77
2023/09/10 05:55:47;;;;;;;11.97;7.93;;;21.60;99.90;;;;;;4920600;29;20589;-77
2023/09/10 05:58:14;;;;;;;11.27;8.00;;;21.70;99.90;;;;;;4921782;29;20561;-76
2023/09/10 06:00:39;;;;;;;9.07;7.87;;;21.80;99.90;;;;;;4904855;29;20633;-76
2023/09/10 06:03:09;;;;;;;11.27;8.40;;;21.80;99.90;;;;;;4924182;29;20927;-76
2023/09/10 06:05:35;;;;;;;9.10;8.10;;;21.80;99.90;;;;;;4927848;29;21145;-76
2023/09/10 06:08:02;;;;;;;8.13;7.33;;;21.90;99.90;;;;;;4935445;29;20704;-76
2023/09/10 06:10:28;;;;;;;13.57;8.33;;;21.90;99.90;;;;;;4919903;29;20688;-76
2023/09/10 06:12:53;;;;;;;11.00;7.27;;;22.00;99.90;;;;;;4927571;29;21060;-75
2023/09/10 06:15:19;;;;;;;9.40;8.00;;;22.00;99.90;;;;;;4924715;29;20718;-76
2023/09/10 06:17:46;;;;;;;12.27;8.33;;;22.00;99.90;;;;;;4898990;29;20664;-76
2023/09/10 06:20:12;;;;;;;13.60;8.90;;;22.10;99.90;;;;;;4916944;29;20585;-76
2023/09/10 06:22:38;;;;;;;9.73;7.40;;;22.10;99.90;;;;;;4930769;29;20708;-76
2023/09/10 06:25:05;;;;;;;8.40;6.17;;;22.20;99.90;;;;;;4920111;29;20597;-75
2023/09/10 06:27:30;;;;;;;10.00;7.20;;;22.30;99.90;;;;;;4955562;29;20598;-76
2023/09/10 06:29:56;;;;;;;11.47;7.27;;;22.40;99.90;;;;;;4954116;29;20600;-76
2023/09/10 06:32:23;;;;;;;10.67;8.13;;;22.50;99.90;;;;;;4953943;28;20204;-76
2023/09/10 06:34:49;;;;;;;10.73;7.80;;;22.50;99.90;;;;;;4939385;29;20629;-76
2023/09/10 06:37:15;;;;;;;10.40;6.93;;;22.60;99.90;;;;;;4921023;29;20656;-76
2023/09/10 06:39:42;;;;;;;11.93;7.80;;;22.70;99.90;;;;;;4948033;29;20653;-76
2023/09/10 06:42:11;;;;;;;8.73;7.47;;;22.80;99.90;;;;;;4951851;28;20622;-76
2023/09/10 06:44:43;;;;;;;10.77;7.57;;;22.90;99.90;;;;;;4938275;29;20184;-76
2023/09/10 06:47:10;;;;;;;11.53;6.83;;;23.00;99.90;;;;;;4955144;29;20596;-76
2023/09/10 06:49:36;;;;;;;10.07;7.30;;;23.10;99.90;;;;;;4954810;29;20627;-76
2023/09/10 06:52:01;;;;;;;8.40;6.97;;;23.20;99.90;;;;;;4953817;28;20654;-76
2023/09/10 06:54:27;;;;;;;11.10;6.97;;;23.50;99.90;;;;;;4926604;29;20724;-77
2023/09/10 06:56:53;;;;;;;7.47;6.13;;;23.90;99.90;;;;;;4943569;29;20213;-76
2023/09/10 06:59:18;;;;;;;10.70;6.83;;;24.50;99.90;;;;;;4953467;29;20184;-76
2023/09/10 07:01:44;;;;;;;7.53;6.30;;;25.10;99.90;;;;;;4949042;29;20225;-76
2023/09/10 07:04:18;;;;;;;7.97;6.00;;;25.90;99.90;;;;;;4932738;29;20196;-76
2023/09/10 07:06:46;;;;;;;12.53;5.60;;;26.60;99.90;;;;;;4940436;29;20211;-77
2023/09/10 07:09:12;;;;;;;14.47;6.00;;;27.40;99.90;;;;;;4945759;29;20684;-76
2023/09/10 07:11:38;;;;;;;14.10;5.80;;;28.20;99.90;;;;;;4947903;28;20718;-76
2023/09/10 07:14:09;;;;;;;10.00;5.70;;;29.00;99.90;;;;;;4932037;29;20640;-77
2023/09/10 07:16:39;;;;;;;8.97;5.73;;;29.60;99.90;;;;;;4938110;29;20175;-77
2023/09/10 07:19:05;;;;;;;10.50;5.40;;;30.10;99.90;;;;;;4922584;29;20586;-77
2023/09/10 07:21:30;;;;;;;9.30;5.17;;;30.80;99.90;;;;;;4956160;28;20987;-77
2023/09/10 07:23:56;;;;;;;8.90;4.83;;;31.20;99.90;;;;;;4938613;29;20186;-77
2023/09/10 07:26:22;;;;;;;7.73;5.60;;;31.70;99.90;;;;;;4938920;29;20190;-77
2023/09/10 07:28:51;;;;;;;6.23;4.47;;;32.20;99.90;;;;;;4943089;28;20191;-78
2023/09/10 07:31:17;;;;;;;6.10;5.40;;;32.50;99.90;;;;;;4954199;28;20188;-77
2023/09/10 07:33:43;;;;;;;7.07;4.70;;;32.90;99.90;;;;;;4938045;29;20636;-78
2023/09/10 07:36:08;;;;;;;6.87;4.50;;;33.40;99.90;;;;;;4946463;29;20597;-78
2023/09/10 07:38:34;;;;;;;7.03;4.53;;;33.80;99.90;;;;;;4954527;29;20704;-78
2023/09/10 07:41:00;;;;;;;7.97;4.93;;;34.20;99.90;;;;;;4937271;29;20625;-78
2023/09/10 07:43:26;;;;;;;8.40;4.30;;;34.50;99.90;;;;;;4953314;28;20212;-78
2023/09/10 07:45:52;;;;;;;10.20;3.93;;;35.00;99.90;;;;;;4949831;29;21314;-77
2023/09/10 07:48:18;;;;;;;6.93;4.37;;;35.30;99.90;;;;;;4946380;29;20187;-78
2023/09/10 07:50:56;;;;;;;9.73;4.00;;;35.50;99.90;;;;;;4954730;29;20185;-77
2023/09/10 07:53:25;;;;;;;10.50;4.83;;;35.80;99.90;;;;;;4955126;29;20672;-77
2023/09/10 07:55:51;;;;;;;7.77;5.17;;;36.00;99.40;;;;;;4956028;29;20584;-77
2023/09/10 07:58:17;;;;;;;9.57;4.27;;;36.10;98.40;;;;;;4927938;29;20597;-76
2023/09/10 08:00:43;;;;;;;5.70;3.70;;;36.20;97.90;;;;;;4937220;29;21034;-76
2023/09/10 08:03:09;;;;;;;5.33;4.80;;;36.40;97.10;;;;;;4936952;29;20621;-76
2023/09/10 08:05:34;;;;;;;7.10;4.93;;;36.70;96.20;;;;;;4937093;29;20569;-76
2023/09/10 08:08:03;;;;;;;5.97;4.90;;;36.90;95.30;;;;;;4950924;28;20255;-76
2023/09/10 08:10:30;;;;;;;8.00;5.30;;;37.20;93.60;;;;;;4954665;29;20184;-76
2023/09/10 08:12:56;;;;;;;6.20;4.10;;;37.30;92.00;;;;;;4954451;28;20644;-74
2023/09/10 08:15:22;;;;;;;7.30;3.97;;;37.40;91.30;;;;;;4953028;29;20994;-75
2023/09/10 08:17:53;;;;;;;7.27;4.67;;;37.70;91.30;;;;;;4938457;29;20555;-75
2023/09/10 08:20:18;;;;;;;5.50;4.23;;;37.90;90.00;;;;;;4945933;29;20185;-75
2023/09/10 08:22:44;;;;;;;8.73;4.30;;;38.10;88.80;;;;;;4943275;28;20720;-75
2023/09/10 08:25:10;;;;;;;6.03;4.27;;;38.20;86.30;;;;;;4941315;29;20216;-75
2023/09/10 08:27:36;;;;;;;5.83;4.17;;;38.40;85.60;;;;;;4937702;29;20236;-75
2023/09/10 08:30:09;;;;;;;8.70;4.60;;;38.50;82.70;;;;;;4953554;29;20192;-76
2023/09/10 08:32:36;;;;;;;4.97;3.60;;;38.60;82.40;;;;;;4931137;29;20205;-76
2023/09/10 08:35:04;;;;;;;11.10;3.80;;;38.80;79.20;;;;;;4928205;29;20643;-76
2023/09/10 08:37:30;;;;;;;6.63;4.23;;;38.90;78.80;;;;;;4942209;29;20596;-75
2023/09/10 08:39:56;;;;;;;6.10;3.20;;;39.10;76.90;;;;;;4928870;28;21160;-76
2023/09/10 08:42:43;;;;;;;3.93;3.53;;;39.10;75.70;;;;;;4942679;29;20617;-75
2023/09/10 08:45:11;;;;;;;6.23;3.87;;;39.50;75.60;;;;;;4944701;29;20672;-76
2023/09/10 08:47:41;;;;;;;6.83;3.20;;;40.00;75.20;;;;;;4941330;29;21040;-76
2023/09/10 08:50:12;;;;;;;6.90;4.90;;;40.50;73.80;;;;;;4948982;29;21127;-76
2023/09/10 08:52:45;;;;;;;3.90;3.37;;;40.70;70.70;;;;;;4951807;29;20710;-75
2023/09/10 08:55:12;;;;;;;8.40;4.10;;;40.90;69.60;;;;;;4950575;29;20635;-75
2023/09/10 08:57:39;;;;;;;6.53;3.70;;;41.30;68.40;;;;;;4931018;29;20596;-74
2023/09/10 09:00:13;;;;;;;8.27;4.00;;;41.50;66.30;;;;;;4922625;29;20585;-73
2023/09/10 09:02:40;;;;;;;7.67;3.60;;;41.70;63.20;;;;;;4945959;28;20603;-74
2023/09/10 09:05:06;;;;;;;7.90;4.10;;;41.80;63.10;;;;;;4951608;29;20590;-73
2023/09/10 09:07:47;;;;;;;7.30;3.80;;;42.20;62.50;;;;;;4930613;29;20580;-74
2023/09/10 09:10:27;;;;;;;5.53;3.17;;;42.50;60.70;;;;;;4934388;29;20584;-74
2023/09/10 09:13:08;;;;;;;9.43;4.00;;;42.70;58.60;;;;;;4933733;29;20640;-73
2023/09/10 09:15:37;;;;;;;7.53;3.40;;;42.60;57.80;;;;;;4933631;29;20615;-73
2023/09/10 09:18:04;;;;;;;7.20;3.53;;;42.60;56.80;;;;;;4932434;29;20593;-73
2023/09/10 09:20:31;;;;;;;6.50;2.70;;;42.50;56.30;;;;;;4934214;29;20589;-72
2023/09/10 09:23:06;;;;;;;7.23;4.23;;;42.70;56.40;;;;;;4925946;28;20639;-72
2023/09/10 09:25:37;;;;;;;7.37;3.90;;;42.90;55.00;;;;;;4950608;29;20716;-71
2023/09/10 09:28:05;;;;;;;9.07;3.37;;;42.70;53.80;;;;;;4945094;29;20592;-75
2023/09/10 09:30:31;;;;;;;6.10;3.53;;;42.60;53.60;;;;;;4942775;29;20592;-75
2023/09/10 09:32:57;;;;;;;8.97;3.00;;;42.50;53.50;;;;;;4951279;28;20631;-75
2023/09/10 09:35:22;;;;;;;4.90;3.00;;;42.50;53.20;;;;;;4935146;29;21283;-75
2023/09/10 09:37:48;;;;;;;6.13;3.60;;;42.60;52.00;;;;;;4938778;29;20767;-76
2023/09/10 09:40:19;;;;;;;5.57;3.97;;;42.40;51.50;;;;;;4953551;29;20176;-76
2023/09/10 09:42:45;;;;;;;8.83;3.70;;;42.10;50.20;;;;;;4953781;28;20196;-76
2023/09/10 09:45:10;;;;;;;4.87;3.00;;;41.80;49.80;;;;;;4954026;29;20647;-75
2023/09/10 09:47:36;;;;;;;5.10;3.27;;;41.50;49.70;;;;;;4953762;29;20176;-76
2023/09/10 09:50:03;;;;;;;4.87;3.00;;;41.30;49.50;;;;;;4953247;29;20275;-76
2023/09/10 09:52:29;;;;;;;5.27;3.20;;;41.20;49.70;;;;;;4935828;29;20219;-75
2023/09/10 09:54:55;;;;;;;5.50;2.87;;;40.90;49.20;;;;;;4935484;29;20748;-75
2023/09/10 09:57:20;;;;;;;6.77;2.80;;;40.80;50.00;;;;;;4937032;29;20672;-75
2023/09/10 09:59:48;;;;;;;3.60;2.80;;;40.90;50.00;;;;;;4936916;29;20174;-76
2023/09/10 10:02:16;;;;;;;4.17;2.80;;;41.10;49.60;;;;;;4936785;29;20204;-75
2023/09/10 10:04:45;;;;;;;14.40;3.83;;;41.10;49.10;;;;;;4935833;29;20664;-76
2023/09/10 10:07:17;;;;;;;3.83;2.63;;;41.10;48.50;;;;;;4935505;29;20581;-76
2023/09/10 10:09:43;;;;;;;5.70;3.23;;;41.10;48.40;;;;;;4935279;29;20592;-75
2023/09/10 10:12:09;;;;;;;9.23;5.53;;;41.10;47.60;;;;;;4936717;29;20695;-75
2023/09/10 10:14:37;;;;;;;6.77;2.60;;;40.90;47.20;;;;;;4919580;29;20205;-75
2023/09/10 10:17:05;;;;;;;9.10;3.13;;;40.90;47.20;;;;;;4937151;29;20684;-74
2023/09/10 10:19:33;;;;;;;5.57;3.70;;;41.00;47.50;;;;;;4947039;29;20658;-75
2023/09/10 10:22:12;;;;;;;5.30;3.20;;;41.00;46.70;;;;;;4954203;29;20657;-75
2023/09/10 10:24:42;;;;;;;4.73;2.70;;;41.20;47.20;;;;;;4939184;29;20591;-78
2023/09/10 10:27:08;;;;;;;4.90;2.30;;;41.50;47.40;;;;;;4956166;29;20599;-78
2023/09/10 10:29:34;;;;;;;5.30;2.80;;;41.70;47.40;;;;;;4935514;29;20584;-78
2023/09/10 10:32:18;;;;;;;5.90;2.70;;;41.90;46.90;;;;;;4936612;29;20776;-79
2023/09/10 10:34:53;;;;;;;4.63;2.50;;;41.90;45.90;;;;;;4927581;29;20208;-79
2023/09/10 10:37:42;;;;;;;6.50;2.60;;;42.10;46.20;;;;;;4954212;29;20632;-78
2023/09/10 10:40:12;;;;;;;4.77;2.43;;;42.30;45.60;;;;;;4954048;29;20588;-75
2023/09/10 10:42:50;;;;;;;5.60;2.70;;;42.60;44.30;;;;;;4954079;28;21135;-75
2023/09/10 10:45:17;;;;;;;6.73;2.57;;;42.50;44.50;;;;;;4938151;29;20628;-75
2023/09/10 10:47:45;;;;;;;2.60;2.40;;;42.50;45.40;;;;;;4954664;28;20952;-75
2023/09/10 10:50:12;;;;;;;5.70;3.37;;;42.60;44.60;;;;;;4947165;29;20584;-75
2023/09/10 10:52:54;;;;;;;5.53;2.60;;;42.80;45.00;;;;;;4937976;29;20643;-75
2023/09/10 10:55:21;;;;;;;5.10;2.37;;;43.00;44.80;;;;;;4955203;29;20671;-75
2023/09/10 10:57:47;;;;;;;4.67;2.73;;;43.00;44.20;;;;;;4955329;29;20576;-75
2023/09/10 11:00:13;;;;;;;5.40;2.80;;;43.00;43.90;;;;;;4937432;29;20643;-77
2023/09/10 11:02:39;;;;;;;6.03;2.30;;;43.10;44.20;;;;;;4954830;28;20710;-77
2023/09/10 11:05:06;;;;;;;8.50;2.90;;;43.30;43.90;;;;;;4949348;29;20737;-77
2023/09/10 11:07:33;;;;;;;3.07;2.77;;;43.20;42.80;;;;;;4918770;29;20580;-76
2023/09/10 11:10:19;;;;;;;9.90;2.93;;;42.90;42.60;;;;;;4948259;29;20682;-77
2023/09/10 11:13:08;;;;;;;9.30;3.33;;;42.70;42.70;;;;;;4937648;29;20656;-76
2023/09/10 11:15:34;;;;;;;3.23;1.73;;;42.50;43.40;;;;;;4950888;29;21175;-76
2023/09/10 11:18:37;;;;;;;4.17;2.50;;;42.70;43.20;;;;;;4926331;29;21142;-76
2023/09/10 11:21:03;;;;;;;7.67;2.70;;;42.50;43.30;;;;;;4935158;29;20591;-76
2023/09/10 11:23:30;;;;;;;7.13;2.37;;;42.60;43.00;;;;;;4937568;29;20611;-76
2023/09/10 11:26:14;;;;;;;6.20;2.37;;;42.60;42.80;;;;;;4946796;29;20584;-76
2023/09/10 11:28:44;;;;;;;5.97;3.07;;;42.50;42.80;;;;;;4942131;29;20609;-76
2023/09/10 11:31:38;;;;;;;5.50;2.83;;;42.50;42.30;;;;;;4935387;29;20599;-76
2023/09/10 11:34:27;;;;;;;5.37;2.23;;;42.50;42.80;;;;;;4948285;29;20643;-77
2023/09/10 11:37:03;;;;;;;5.40;2.50;;;42.70;43.50;;;;;;4945407;29;20602;-76
2023/09/10 11:39:31;;;;;;;4.27;2.57;;;42.80;42.60;;;;;;4954007;29;20610;-77
2023/09/10 11:42:00;;;;;;;7.10;2.87;;;42.80;42.60;;;;;;4956385;29;20655;-77
2023/09/10 11:44:26;;;;;;;5.10;2.53;;;42.90;42.30;;;;;;4937175;29;20588;-77
2023/09/10 11:46:52;;;;;;;6.00;2.43;;;42.80;42.10;;;;;;4937113;29;20611;-77
2023/09/10 11:49:20;;;;;;;6.07;2.63;;;42.50;41.90;;;;;;4953910;29;20245;-77
2023/09/10 11:51:58;;;;;;;3.50;2.30;;;42.40;42.10;;;;;;4954130;29;21098;-77
2023/09/10 11:54:25;;;;;;;3.57;2.60;;;42.40;42.40;;;;;;4936816;29;20648;-76
2023/09/10 11:56:55;;;;;;;3.43;2.47;;;42.40;42.50;;;;;;4952914;29;20584;-76
2023/09/10 11:59:24;;;;;;;6.77;2.63;;;42.30;42.10;;;;;;4937050;29;20628;-77
2023/09/10 12:01:53;;;;;;;6.40;2.70;;;41.90;41.70;;;;;;4936709;29;20624;-76
2023/09/10 12:04:20;;;;;;;7.77;2.50;;;41.60;42.20;;;;;;4953800;29;20590;-77
2023/09/10 12:06:46;;;;;;;3.87;2.03;;;41.50;42.70;;;;;;4953957;29;20595;-78
2023/09/10 12:09:15;;;;;;;4.83;2.30;;;41.50;42.80;;;;;;4953927;29;20993;-77
2023/09/10 12:11:42;;;;;;;5.67;2.97;;;41.40;42.90;;;;;;4936390;29;20607;-77
2023/09/10 12:14:08;;;;;;;4.20;2.33;;;41.30;42.60;;;;;;4945693;29;21198;-77
2023/09/10 12:16:34;;;;;;;8.90;2.80;;;41.10;42.50;;;;;;4953759;29;20591;-77
2023/09/10 12:19:00;;;;;;;4.20;2.60;;;40.90;42.60;;;;;;4929235;29;20946;-77
2023/09/10 12:21:26;;;;;;;6.37;3.20;;;40.80;42.90;;;;;;4953190;28;20200;-77
2023/09/10 12:23:52;;;;;;;6.40;2.57;;;40.60;43.00;;;;;;4953694;29;21040;-77
2023/09/10 12:26:19;;;;;;;3.67;3.20;;;40.50;43.00;;;;;;4953496;29;20657;-77
2023/09/10 12:28:45;;;;;;;5.10;2.57;;;40.20;43.00;;;;;;4953345;29;20190;-77
2023/09/10 12:31:11;;;;;;;6.63;2.77;;;40.00;43.30;;;;;;4953195;29;20619;-76
2023/09/10 12:33:37;;;;;;;6.33;3.00;;;39.90;43.80;;;;;;4935961;29;20690;-77
2023/09/10 12:36:03;;;;;;;3.70;2.80;;;39.80;44.00;;;;;;4953475;29;20180;-77
2023/09/10 12:38:29;;;;;;;6.40;2.33;;;39.80;44.10;;;;;;4902842;29;20169;-77
2023/09/10 12:40:55;;;;;;;5.53;2.37;;;39.70;44.20;;;;;;4934020;29;20595;-77
2023/09/10 12:43:21;;;;;;;4.00;2.57;;;39.70;44.30;;;;;;4932797;29;20310;-77
2023/09/10 12:45:47;;;;;;;4.37;2.93;;;39.60;44.40;;;;;;4933019;29;20176;-77